Time;durP1;ratioP1;P1;durP2;ratioP2;P2;SDS_P1;SDS_P2;PMS_P1;PMS_P2;Temp;Humidity;BMP_temperature;BMP_pressure;BME280_temperature;BME280_humidity;BME280_pressure;Samples;Min_cycle;Max_cycle;Signal;HPM_P1;HPM_P2
2024/01/24 00:00:40;;;;;;;31.90;15.45;;;;;;;2.11;100.00;99395.19;5098620;28;20094;-59
2024/01/24 00:03:06;;;;;;;36.03;16.60;;;;;;;2.44;100.00;99378.78;5098274;28;20052;-59
2024/01/24 00:05:32;;;;;;;37.53;14.13;;;;;;;2.46;100.00;99400.91;5098769;28;20079;-60
2024/01/24 00:07:58;;;;;;;27.45;14.55;;;;;;;2.20;100.00;99409.59;5098323;28;20071;-61
2024/01/24 00:10:24;;;;;;;33.08;14.18;;;;;;;2.46;100.00;99414.44;5098722;28;20063;-61
2024/01/24 00:12:50;;;;;;;30.40;15.30;;;;;;;2.32;100.00;99423.38;5098219;28;20056;-60
2024/01/24 00:15:16;;;;;;;34.35;13.57;;;;;;;2.44;100.00;99430.19;5098669;28;20047;-61
2024/01/24 00:17:42;;;;;;;29.75;14.52;;;;;;;2.17;100.00;99437.25;5098415;28;20079;-61
2024/01/24 00:20:11;;;;;;;28.92;13.85;;;;;;;2.44;100.00;99431.00;5098202;28;20154;-61
2024/01/24 00:22:37;;;;;;;29.85;14.07;;;;;;;2.55;100.00;99445.88;5098270;28;20056;-61
2024/01/24 00:25:04;;;;;;;30.83;13.75;;;;;;;2.40;100.00;99448.94;5098174;28;20420;-61
2024/01/24 00:27:29;;;;;;;33.35;14.77;;;;;;;2.46;100.00;99455.81;5098317;28;20138;-60
2024/01/24 00:29:55;;;;;;;26.95;12.20;;;;;;;2.58;100.00;99447.19;5097859;28;20078;-61
2024/01/24 00:32:22;;;;;;;35.20;14.20;;;;;;;2.46;100.00;99455.81;5098321;28;20056;-61
2024/01/24 00:34:48;;;;;;;30.80;13.27;;;;;;;2.28;100.00;99459.47;5097829;28;20412;-60
2024/01/24 00:37:14;;;;;;;30.35;14.82;;;;;;;2.65;100.00;99457.59;5098288;28;20079;-60
2024/01/24 00:39:40;;;;;;;31.02;13.45;;;;;;;2.50;100.00;99446.03;5097796;28;20052;-59
2024/01/24 00:42:06;;;;;;;29.65;12.73;;;;;;;2.37;100.00;99452.25;5098083;28;20393;-60
2024/01/24 00:44:32;;;;;;;28.58;14.32;;;;;;;2.42;100.00;99444.00;5097705;28;20094;-60
2024/01/24 00:46:58;;;;;;;35.00;13.73;;;;;;;2.43;100.00;99439.41;5097903;28;20048;-61
2024/01/24 00:49:26;;;;;;;27.58;12.55;;;;;;;2.44;100.00;99430.19;5097646;28;20086;-62
2024/01/24 00:51:52;;;;;;;25.20;13.98;;;;;;;2.33;100.00;99435.84;5097641;28;20051;-60
2024/01/24 00:54:18;;;;;;;33.80;14.20;;;;;;;2.60;100.00;99434.16;5097845;28;20075;-60
2024/01/24 00:56:44;;;;;;;32.97;12.65;;;;;;;2.33;100.00;99433.13;5097499;28;20391;-60
2024/01/24 00:59:10;;;;;;;30.13;13.95;;;;;;;2.26;100.00;99430.00;5097691;28;20461;-61
2024/01/24 01:01:36;;;;;;;27.58;12.75;;;;;;;2.35;100.00;99433.59;5097342;28;20048;-61
2024/01/24 01:04:03;;;;;;;27.10;12.90;;;;;;;2.33;100.00;99448.53;5097798;28;20055;-58
2024/01/24 01:06:30;;;;;;;28.55;13.23;;;;;;;2.32;100.00;99439.63;5097447;28;20052;-61
2024/01/24 01:08:56;;;;;;;23.90;12.30;;;;;;;2.47;100.00;99422.28;5097516;28;20358;-61
2024/01/24 01:11:22;;;;;;;26.70;12.65;;;;;;;2.28;100.00;99427.81;5097287;28;20044;-61
2024/01/24 01:13:48;;;;;;;30.63;13.35;;;;;;;2.35;100.00;99411.97;5097770;28;20055;-60
2024/01/24 01:16:14;;;;;;;31.73;11.75;;;;;;;2.22;100.00;99404.66;5097148;28;20104;-62
2024/01/24 01:18:40;;;;;;;22.38;12.07;;;;;;;2.33;100.00;99403.38;5097396;28;20060;-61
2024/01/24 01:21:06;;;;;;;26.50;13.05;;;;;;;2.31;100.00;99399.34;5097409;28;20197;-61
2024/01/24 01:23:32;;;;;;;29.90;13.23;;;;;;;2.51;100.00;99406.22;5097209;28;20143;-60
2024/01/24 01:25:58;;;;;;;27.55;12.63;;;;;;;2.45;100.00;99418.25;5097375;28;20397;-61
2024/01/24 01:28:24;;;;;;;25.77;13.40;;;;;;;2.34;100.00;99418.47;5097056;28;20048;-60
2024/01/24 01:30:50;;;;;;;26.10;12.45;;;;;;;2.49;100.00;99421.94;5097351;28;20090;-60
2024/01/24 01:33:16;;;;;;;24.90;12.10;;;;;;;2.25;100.00;99427.63;5097055;28;20090;-60
2024/01/24 01:35:42;;;;;;;31.08;12.40;;;;;;;2.46;100.00;99422.56;5097340;28;20298;-60
2024/01/24 01:38:08;;;;;;;29.73;12.18;;;;;;;2.41;100.00;99437.00;5096875;28;20044;-61
2024/01/24 01:40:34;;;;;;;30.30;13.15;;;;;;;2.47;100.00;99440.41;5097253;28;20055;-61
2024/01/24 01:43:00;;;;;;;21.85;11.77;;;;;;;2.39;100.00;99447.31;5096744;28;20066;-58
2024/01/24 01:45:26;;;;;;;22.65;11.65;;;;;;;2.59;100.00;99438.75;5097239;28;20052;-60
2024/01/24 01:47:52;;;;;;;38.15;12.40;;;;;;;2.39;100.00;99443.81;5097008;28;20138;-60
2024/01/24 01:50:19;;;;;;;27.00;11.55;;;;;;;2.31;100.00;99431.81;5096811;28;20441;-61
2024/01/24 01:52:45;;;;;;;25.70;11.50;;;;;;;2.48;100.00;99420.34;5096960;28;20316;-61
2024/01/24 01:55:12;;;;;;;23.83;12.20;;;;;;;2.36;100.00;99429.00;5096611;28;20468;-61
2024/01/24 01:57:43;;;;;;;22.23;11.52;;;;;;;2.47;100.00;99429.59;5096960;28;20134;-60
2024/01/24 02:00:11;;;;;;;31.65;12.52;;;;;;;2.47;100.00;99429.59;5096609;28;20052;-60
2024/01/24 02:02:37;;;;;;;29.17;11.68;;;;;;;2.51;100.00;99423.25;5096821;28;20059;-60
2024/01/24 02:05:03;;;;;;;28.95;10.93;;;;;;;2.60;100.00;99445.00;5096551;28;20134;-61
2024/01/24 02:07:29;;;;;;;24.05;11.70;;;;;;;2.54;100.00;99455.13;5097012;28;20109;-60
2024/01/24 02:09:56;;;;;;;29.17;11.07;;;;;;;2.63;100.00;99444.34;5096517;28;20051;-60
2024/01/24 02:12:21;;;;;;;25.52;10.93;;;;;;;2.47;100.00;99440.41;5096820;28;20094;-60
2024/01/24 02:14:48;;;;;;;26.30;11.07;;;;;;;2.38;100.00;99448.44;5096287;28;20051;-60
2024/01/24 02:17:14;;;;;;;23.67;11.35;;;;;;;2.41;100.00;99436.22;5096552;28;20381;-61
2024/01/24 02:19:40;;;;;;;26.30;11.50;;;;;;;2.57;100.00;99429.38;5095809;28;20044;-61
2024/01/24 02:22:06;;;;;;;22.23;10.05;;;;;;;2.53;100.00;99415.63;5096327;28;20048;-60
2024/01/24 02:24:33;;;;;;;17.15;8.52;;;;;;;2.59;100.00;99422.50;5096407;28;20408;-61
2024/01/24 02:26:59;;;;;;;20.65;10.00;;;;;;;2.65;100.00;99425.13;5096146;28;20058;-60
2024/01/24 02:29:24;;;;;;;20.20;11.27;;;;;;;2.72;100.00;99420.06;5096460;28;20044;-60
2024/01/24 02:31:50;;;;;;;30.20;10.65;;;;;;;2.33;100.00;99419.59;5096172;28;20055;-60
2024/01/24 02:34:16;;;;;;;27.75;10.85;;;;;;;2.41;100.00;99412.66;5096459;28;20365;-59
2024/01/24 02:36:42;;;;;;;26.13;11.73;;;;;;;2.41;100.00;99420.78;5096154;28;20083;-59
2024/01/24 02:39:08;;;;;;;21.65;9.10;;;;;;;2.63;100.00;99421.91;5096530;28;20139;-60
2024/01/24 02:41:38;;;;;;;26.80;10.50;;;;;;;2.53;100.00;99422.94;5096082;28;20048;-61
2024/01/24 02:44:04;;;;;;;30.70;11.10;;;;;;;2.39;100.00;99411.34;5096285;28;20365;-61
2024/01/24 02:46:30;;;;;;;21.35;10.45;;;;;;;2.65;100.00;99404.25;5096248;28;20060;-61
2024/01/24 02:48:56;;;;;;;22.35;9.75;;;;;;;2.69;100.00;99410.66;5096120;28;20159;-61
2024/01/24 02:51:25;;;;;;;30.42;12.13;;;;;;;2.63;100.00;99411.09;5096022;28;20150;-61
2024/01/24 02:53:51;;;;;;;24.13;10.60;;;;;;;2.45;100.00;99421.75;5095807;28;20058;-61
2024/01/24 02:56:17;;;;;;;25.08;11.07;;;;;;;2.44;100.00;99406.63;5096109;28;20055;-60
2024/01/24 02:58:43;;;;;;;27.55;10.32;;;;;;;2.37;100.00;99406.25;5095946;28;20048;-59
2024/01/24 03:01:09;;;;;;;18.27;9.82;;;;;;;2.47;100.00;99389.78;5096245;28;20138;-60
2024/01/24 03:03:38;;;;;;;28.83;11.10;;;;;;;2.26;100.00;99402.94;5095773;28;20101;-59
2024/01/24 03:06:04;;;;;;;33.40;10.55;;;;;;;2.41;100.00;99382.88;5096217;28;20048;-61
2024/01/24 03:08:30;;;;;;;24.77;9.82;;;;;;;2.28;100.00;99384.53;5095618;28;20408;-60
2024/01/24 03:10:56;;;;;;;28.30;10.75;;;;;;;2.38;100.00;99372.69;5096104;28;20048;-60
2024/01/24 03:13:22;;;;;;;23.92;10.70;;;;;;;2.36;100.00;99364.84;5095951;28;20387;-60
2024/01/24 03:15:48;;;;;;;27.15;11.15;;;;;;;2.54;100.00;99376.63;5095799;28;20083;-61
2024/01/24 03:18:14;;;;;;;30.75;11.45;;;;;;;2.53;100.00;99377.75;5095891;28;20062;-61
2024/01/24 03:20:40;;;;;;;26.55;10.77;;;;;;;2.37;100.00;99387.31;5095696;28;20138;-61
2024/01/24 03:23:06;;;;;;;31.70;11.52;;;;;;;2.34;100.00;99383.31;5095850;28;20484;-61
2024/01/24 03:25:32;;;;;;;21.58;11.32;;;;;;;2.37;100.00;99371.09;5095652;28;20063;-61
2024/01/24 03:27:58;;;;;;;27.13;10.98;;;;;;;2.17;100.00;99375.03;5095865;28;20075;-60
2024/01/24 03:30:24;;;;;;;23.15;9.02;;;;;;;2.49;100.00;99367.81;5095388;28;20482;-60
2024/01/24 03:32:50;;;;;;;16.40;8.73;;;;;;;2.17;100.00;99368.84;5098243;28;20193;-60
2024/01/24 03:35:18;;;;;;;26.60;10.48;;;;;;;2.39;100.00;99357.25;5098809;28;20105;-60
2024/01/24 03:37:44;;;;;;;22.52;10.25;;;;;;;2.53;100.00;99366.94;5099223;28;20324;-60
2024/01/24 03:40:11;;;;;;;26.35;10.13;;;;;;;2.40;100.00;99384.00;5098662;28;20385;-60
2024/01/24 03:42:37;;;;;;;23.40;9.90;;;;;;;2.59;100.00;99389.25;5098594;28;20135;-61
2024/01/24 03:45:04;;;;;;;29.48;11.93;;;;;;;2.66;100.00;99399.66;5098636;28;20055;-60
2024/01/24 03:47:30;;;;;;;24.60;9.10;;;;;;;2.42;100.00;99411.53;5098800;28;20048;-60
2024/01/24 03:49:57;;;;;;;17.52;9.73;;;;;;;2.41;100.00;99399.13;5098857;28;20075;-60
2024/01/24 03:52:23;;;;;;;24.45;8.80;;;;;;;2.86;100.00;99399.16;5098791;28;20317;-60
2024/01/24 03:54:49;;;;;;;21.63;10.05;;;;;;;2.56;100.00;99406.09;5098884;28;20369;-61
2024/01/24 03:57:15;;;;;;;25.20;9.35;;;;;;;2.78;100.00;99413.44;5098508;28;20074;-60
2024/01/24 03:59:41;;;;;;;29.52;9.60;;;;;;;2.58;100.00;99401.97;5098793;28;20362;-60
2024/01/24 04:02:08;;;;;;;15.25;8.90;;;;;;;2.49;100.00;99400.31;5098247;28;20063;-60
2024/01/24 04:04:34;;;;;;;18.45;8.68;;;;;;;2.65;100.00;99404.25;5098873;28;20193;-60
2024/01/24 04:07:01;;;;;;;24.48;9.02;;;;;;;2.33;100.00;99400.66;5098346;28;20124;-60
2024/01/24 04:09:27;;;;;;;24.00;8.40;;;;;;;2.53;100.00;99395.88;5098709;28;20135;-61
2024/01/24 04:11:53;;;;;;;26.23;8.82;;;;;;;2.59;100.00;99392.75;5098539;28;20048;-60
2024/01/24 04:14:19;;;;;;;20.83;8.68;;;;;;;2.49;100.00;99387.56;5098338;28;20139;-60
2024/01/24 04:16:45;;;;;;;19.45;7.68;;;;;;;2.60;100.00;99398.97;5098447;28;20109;-61
2024/01/24 04:19:11;;;;;;;17.15;8.70;;;;;;;2.67;100.00;99402.06;5098276;28;20055;-60
2024/01/24 04:21:41;;;;;;;15.38;7.78;;;;;;;2.68;100.00;99397.44;5098222;28;20138;-61
2024/01/24 04:24:08;;;;;;;19.02;8.00;;;;;;;2.70;100.00;99403.34;5098034;28;20060;-60
2024/01/24 04:26:34;;;;;;;27.95;9.35;;;;;;;2.67;100.00;99402.06;5098385;28;20189;-60
2024/01/24 04:29:01;;;;;;;19.33;7.28;;;;;;;2.77;100.00;99401.81;5098041;28;20139;-61
2024/01/24 04:31:28;;;;;;;23.80;7.38;;;;;;;2.81;100.00;99399.28;5098322;28;20056;-59
2024/01/24 04:33:55;;;;;;;28.13;8.75;;;;;;;2.53;100.00;99385.03;5097841;28;20156;-60
2024/01/24 04:36:21;;;;;;;24.40;8.00;;;;;;;2.52;100.00;99376.13;5098251;28;20101;-60
2024/01/24 04:38:47;;;;;;;20.33;8.35;;;;;;;2.56;100.00;99379.03;5097947;28;20359;-59
2024/01/24 04:41:14;;;;;;;19.65;8.55;;;;;;;2.63;100.00;99371.28;5097879;28;20084;-60
2024/01/24 04:43:40;;;;;;;22.77;8.88;;;;;;;2.48;100.00;99383.25;5097332;28;20095;-61
2024/01/24 04:46:13;;;;;;;17.65;8.68;;;;;;;2.59;100.00;99390.03;5097899;28;20341;-61
2024/01/24 04:48:41;;;;;;;17.60;8.60;;;;;;;2.62;100.00;99372.38;5097785;28;20059;-60
2024/01/24 04:51:07;;;;;;;25.65;8.90;;;;;;;2.51;100.00;99362.91;5097826;28;20454;-60
2024/01/24 04:53:33;;;;;;;24.45;8.07;;;;;;;2.56;100.00;99368.19;5097454;28;20146;-60
2024/01/24 04:56:00;;;;;;;27.80;8.82;;;;;;;2.42;100.00;99362.84;5097425;28;20131;-61
2024/01/24 04:58:27;;;;;;;22.83;8.98;;;;;;;2.66;100.00;99362.53;5097836;28;20056;-60
2024/01/24 05:00:53;;;;;;;16.05;7.97;;;;;;;2.73;100.00;99362.94;5097235;28;20079;-61
2024/01/24 05:03:19;;;;;;;23.23;9.32;;;;;;;2.48;100.00;99350.78;5097652;28;20135;-60
2024/01/24 05:05:45;;;;;;;19.83;8.27;;;;;;;2.47;100.00;99343.78;5097023;28;20151;-61
2024/01/24 05:08:11;;;;;;;17.10;8.15;;;;;;;2.43;100.00;99350.09;5097169;28;20048;-61
2024/01/24 05:10:37;;;;;;;22.50;8.52;;;;;;;2.65;100.00;99344.72;5097275;28;20150;-55
2024/01/24 05:13:04;;;;;;;23.52;7.95;;;;;;;2.79;100.00;99342.72;5097151;28;20143;-62
2024/01/24 05:15:31;;;;;;;26.05;8.82;;;;;;;3.11;100.00;99346.28;5097302;28;20135;-56
2024/01/24 05:17:57;;;;;;;21.60;7.90;;;;;;;2.87;100.00;99316.84;5096961;28;20062;-61
2024/01/24 05:20:23;;;;;;;27.13;8.55;;;;;;;2.71;100.00;99321.03;5097069;28;20048;-54
2024/01/24 05:22:49;;;;;;;23.98;7.55;;;;;;;2.91;100.00;99325.13;5096941;28;20051;-59
2024/01/24 05:25:15;;;;;;;17.95;7.53;;;;;;;2.77;100.00;99315.19;5097317;28;20048;-56
2024/01/24 05:27:42;;;;;;;18.60;8.70;;;;;;;2.75;100.00;99311.19;5096706;28;20053;-59
2024/01/24 05:30:08;;;;;;;23.15;7.80;;;;;;;2.87;100.00;99308.72;5097128;28;20055;-57
2024/01/24 05:32:35;;;;;;;20.13;6.68;;;;;;;2.74;100.00;99296.84;5096652;28;20083;-55
2024/01/24 05:35:02;;;;;;;19.25;7.32;;;;;;;2.70;100.00;99285.03;5096611;28;20139;-59
2024/01/24 05:37:28;;;;;;;20.30;7.38;;;;;;;2.58;100.00;99295.63;5096520;28;20087;-58
2024/01/24 05:39:54;;;;;;;22.85;7.70;;;;;;;2.98;100.00;99298.41;5096527;28;20135;-58
2024/01/24 05:42:20;;;;;;;21.55;7.50;;;;;;;2.73;100.00;99281.72;5096570;28;20108;-58
2024/01/24 05:44:47;;;;;;;27.58;8.65;;;;;;;2.88;100.00;99294.06;5096848;28;20055;-60
2024/01/24 05:47:13;;;;;;;20.58;7.72;;;;;;;3.05;100.00;99287.94;5096560;28;20143;-61
2024/01/24 05:49:40;;;;;;;18.77;7.40;;;;;;;2.54;100.00;99256.75;5096761;28;20048;-61
2024/01/24 05:52:06;;;;;;;23.90;7.57;;;;;;;2.53;100.00;99288.44;5096388;28;20048;-62
2024/01/24 05:54:33;;;;;;;20.52;7.22;;;;;;;2.49;100.00;99294.75;5095658;28;20047;-61
2024/01/24 05:56:59;;;;;;;23.80;8.45;;;;;;;2.43;100.00;99290.56;5096387;28;20105;-63
2024/01/24 05:59:26;;;;;;;26.50;7.90;;;;;;;2.26;100.00;99300.16;5096701;28;20412;-62
2024/01/24 06:01:52;;;;;;;21.48;7.90;;;;;;;2.12;100.00;99312.94;5096213;28;20491;-62
2024/01/24 06:04:18;;;;;;;32.38;8.15;;;;;;;2.17;100.00;99312.03;5096400;28;20396;-62
2024/01/24 06:06:45;;;;;;;35.55;10.20;;;;;;;2.00;100.00;99310.78;5096381;28;20099;-62
2024/01/24 06:09:11;;;;;;;32.72;11.57;;;;;;;2.26;100.00;99323.72;5096127;28;20089;-62
2024/01/24 06:11:37;;;;;;;27.98;9.40;;;;;;;2.33;100.00;99318.66;5096158;28;20048;-61
2024/01/24 06:14:03;;;;;;;22.80;8.80;;;;;;;2.15;100.00;99311.53;5096258;28;20056;-61
2024/01/24 06:16:30;;;;;;;23.65;8.73;;;;;;;2.12;100.00;99302.91;5096343;28;20051;-62
2024/01/24 06:18:56;;;;;;;26.20;7.78;;;;;;;2.05;100.00;99299.03;5096081;28;20048;-61
2024/01/24 06:21:22;;;;;;;20.75;8.32;;;;;;;2.17;100.00;99310.13;5096224;28;20460;-62
2024/01/24 06:23:49;;;;;;;22.90;9.30;;;;;;;2.20;100.00;99298.69;5095813;28;20098;-61
2024/01/24 06:26:16;;;;;;;18.48;8.02;;;;;;;2.17;100.00;99285.78;5096562;28;20332;-61
2024/01/24 06:28:42;;;;;;;27.10;8.45;;;;;;;2.21;100.00;99275.16;5095798;28;20128;-61
2024/01/24 06:31:08;;;;;;;18.80;7.80;;;;;;;2.11;100.00;99284.31;5096326;28;20056;-61
2024/01/24 06:33:34;;;;;;;26.92;7.68;;;;;;;2.30;100.00;99276.81;5095759;28;20062;-62
2024/01/24 06:36:00;;;;;;;18.42;7.40;;;;;;;2.12;100.00;99278.56;5095895;28;20512;-62
2024/01/24 06:38:26;;;;;;;27.80;9.82;;;;;;;2.10;100.00;99272.69;5096204;28;20048;-61
2024/01/24 06:40:53;;;;;;;20.10;8.15;;;;;;;2.27;100.00;99277.44;5095716;28;20443;-61
2024/01/24 06:43:20;;;;;;;20.90;7.35;;;;;;;2.02;100.00;99270.69;5095849;28;20056;-60
2024/01/24 06:45:46;;;;;;;26.90;8.07;;;;;;;2.35;100.00;99273.19;5095746;28;20102;-60
2024/01/24 06:48:12;;;;;;;20.15;8.10;;;;;;;2.29;100.00;99260.88;5096123;28;20135;-62
2024/01/24 06:50:39;;;;;;;20.73;7.97;;;;;;;2.41;100.00;99253.00;5095622;28;20044;-62
2024/01/24 06:53:10;;;;;;;20.00;8.55;;;;;;;2.20;100.00;99244.59;5096170;28;20144;-60
2024/01/24 06:55:37;;;;;;;12.27;7.13;;;;;;;2.15;100.00;99242.00;5095590;28;20102;-59
2024/01/24 06:58:04;;;;;;;17.40;7.38;;;;;;;2.16;100.00;99242.81;5095996;28;20056;-55
2024/01/24 07:00:30;;;;;;;21.33;8.05;;;;;;;2.21;100.00;99234.56;5095327;28;20044;-61
2024/01/24 07:02:56;;;;;;;21.38;7.43;;;;;;;2.21;100.00;99218.34;5095684;28;20048;-62
2024/01/24 07:05:22;;;;;;;23.50;7.28;;;;;;;2.13;100.00;99225.28;5096065;28;20393;-61
2024/01/24 07:07:48;;;;;;;20.77;8.30;;;;;;;2.27;100.00;99225.25;5099043;28;20127;-59
2024/01/24 07:10:15;;;;;;;18.55;8.10;;;;;;;2.24;100.00;99221.25;5099064;28;20374;-62
2024/01/24 07:12:45;;;;;;;17.70;8.02;;;;;;;2.08;100.00;99218.09;5098869;28;20094;-61
2024/01/24 07:15:12;;;;;;;23.20;8.52;;;;;;;2.18;100.00;99214.34;5099151;28;20063;-62
2024/01/24 07:17:38;;;;;;;20.13;7.85;;;;;;;2.18;100.00;99210.84;5098817;28;20052;-61
2024/01/24 07:20:05;;;;;;;22.67;7.82;;;;;;;2.43;100.00;99209.41;5099135;28;20048;-62
2024/01/24 07:22:31;;;;;;;27.15;7.40;;;;;;;2.25;100.00;99194.97;5098513;28;20063;-61
2024/01/24 07:24:58;;;;;;;24.75;7.57;;;;;;;2.36;100.00;99193.59;5098993;28;20098;-61
2024/01/24 07:27:24;;;;;;;23.52;9.13;;;;;;;2.34;100.00;99166.88;5098379;28;20058;-61
2024/01/24 07:29:50;;;;;;;25.58;8.43;;;;;;;2.45;100.00;99150.38;5098366;28;20135;-61
2024/01/24 07:32:17;;;;;;;25.13;7.45;;;;;;;2.27;100.00;99128.66;5098730;28;20456;-62
2024/01/24 07:34:43;;;;;;;13.63;6.70;;;;;;;2.23;100.00;99130.38;5098350;28;20051;-57
2024/01/24 07:37:10;;;;;;;21.85;8.38;;;;;;;2.48;100.00;99128.91;5098574;28;20075;-61
2024/01/24 07:39:36;;;;;;;33.55;8.80;;;;;;;2.41;100.00;99120.44;5098371;28;20051;-62
2024/01/24 07:42:02;;;;;;;26.75;8.85;;;;;;;2.51;100.00;99101.22;5098421;28;20371;-61
2024/01/24 07:44:29;;;;;;;17.67;8.23;;;;;;;2.62;100.00;99073.88;5098270;28;20052;-61
2024/01/24 07:46:55;;;;;;;21.83;8.10;;;;;;;2.24;100.00;99058.94;5098607;28;20146;-61
2024/01/24 07:49:23;;;;;;;29.83;9.25;;;;;;;2.36;100.00;99078.06;5097936;28;20135;-63
2024/01/24 07:51:49;;;;;;;25.35;8.90;;;;;;;2.42;100.00;99086.06;5098080;28;20090;-62
2024/01/24 07:54:17;;;;;;;25.83;8.40;;;;;;;2.33;100.00;99076.00;5098029;28;20321;-63
2024/01/24 07:56:44;;;;;;;39.30;11.18;;;;;;;2.63;100.00;99057.28;5098551;28;20059;-63
2024/01/24 07:59:12;;;;;;;18.27;8.98;;;;;;;2.42;100.00;99021.13;5098186;28;20048;-61
2024/01/24 08:01:38;;;;;;;26.88;8.68;;;;;;;2.46;100.00;99028.28;5098211;28;20052;-61
2024/01/24 08:04:04;;;;;;;27.10;8.85;;;;;;;2.29;100.00;99022.81;5098164;28;20083;-63
2024/01/24 08:06:32;;;;;;;30.17;8.80;;;;;;;2.36;100.00;99013.13;5098000;28;20401;-62
2024/01/24 08:08:59;;;;;;;25.75;7.97;;;;;;;2.62;100.00;99019.72;5098396;28;20225;-61
2024/01/24 08:11:26;;;;;;;21.77;6.93;;;;;;;2.21;100.00;98991.16;5098189;28;20332;-63
2024/01/24 08:13:52;;;;;;;25.05;7.07;;;;;;;2.37;100.00;98976.09;5098357;28;20189;-61
2024/01/24 08:16:18;;;;;;;34.83;8.13;;;;;;;2.13;100.00;98968.34;5098009;28;20063;-62
2024/01/24 08:18:45;;;;;;;18.58;7.15;;;;;;;2.12;100.00;98980.28;5097188;28;20048;-62
2024/01/24 08:21:12;;;;;;;30.23;6.75;;;;;;;2.19;100.00;98977.94;5097675;28;20052;-61
2024/01/24 08:23:39;;;;;;;25.50;6.03;;;;;;;2.06;100.00;98974.22;5098283;28;20056;-62
2024/01/24 08:26:05;;;;;;;24.80;6.70;;;;;;;2.02;100.00;98994.88;5097503;28;20052;-63
2024/01/24 08:28:31;;;;;;;23.20;8.00;;;;;;;2.21;100.00;98981.13;5097958;28;20162;-62
2024/01/24 08:30:57;;;;;;;24.40;6.78;;;;;;;2.43;100.00;98958.56;5097781;28;20075;-64
2024/01/24 08:33:23;;;;;;;20.15;7.63;;;;;;;2.53;100.00;98935.81;5097794;28;20102;-64
2024/01/24 08:35:49;;;;;;;32.53;8.00;;;;;;;2.49;100.00;98868.00;5097777;28;20415;-61
2024/01/24 08:38:16;;;;;;;20.42;7.43;;;;;;;2.47;100.00;98875.66;5097671;28;20052;-57
2024/01/24 08:40:43;;;;;;;26.52;8.13;;;;;;;2.30;100.00;98852.09;5097938;28;20278;-62
2024/01/24 08:43:09;;;;;;;18.55;7.95;;;;;;;2.59;100.00;98821.69;5097438;28;20466;-55
2024/01/24 08:45:35;;;;;;;17.75;7.10;;;;;;;2.40;100.00;98786.06;5097970;28;20130;-60
2024/01/24 08:48:01;;;;;;;21.75;8.75;;;;;;;2.81;100.00;98782.81;5097451;28;20222;-58
2024/01/24 08:50:27;;;;;;;32.40;9.90;;;;;;;2.40;100.00;98734.66;5097830;28;20052;-60
2024/01/24 08:52:54;;;;;;;31.58;8.48;;;;;;;2.63;100.00;98700.03;5097200;28;20091;-63
2024/01/24 08:55:21;;;;;;;27.55;8.55;;;;;;;2.57;100.00;98661.56;5097135;28;20062;-62
2024/01/24 08:57:48;;;;;;;33.42;9.80;;;;;;;2.63;100.00;98624.28;5097349;28;20531;-57
2024/01/24 09:00:15;;;;;;;39.25;11.18;;;;;;;2.39;100.00;98640.28;5097011;28;20074;-55
2024/01/24 09:02:41;;;;;;;19.45;7.97;;;;;;;2.08;100.00;98671.88;5097095;28;20059;-58
2024/01/24 09:05:08;;;;;;;21.75;7.35;;;;;;;2.16;100.00;98683.78;5097119;28;20079;-59
2024/01/24 09:07:35;;;;;;;20.60;8.38;;;;;;;2.13;100.00;98735.78;5097542;28;20079;-57
2024/01/24 09:10:03;;;;;;;27.77;9.25;;;;;;;2.22;100.00;98749.31;5097068;28;20116;-61
2024/01/24 09:12:30;;;;;;;27.52;9.18;;;;;;;2.33;100.00;98740.56;5097398;28;20097;-58
2024/01/24 09:14:57;;;;;;;32.83;9.32;;;;;;;2.64;100.00;98701.66;5097131;28;20052;-59
2024/01/24 09:17:24;;;;;;;28.90;10.23;;;;;;;2.65;100.00;98635.56;5097201;28;20147;-59
2024/01/24 09:19:50;;;;;;;26.48;8.55;;;;;;;2.62;100.00;98619.97;5096657;28;20044;-60
2024/01/24 09:22:16;;;;;;;23.17;8.57;;;;;;;2.39;100.00;98614.03;5097069;28;20058;-57
2024/01/24 09:24:42;;;;;;;38.65;8.38;;;;;;;2.25;100.00;98627.75;5096924;28;20048;-60
2024/01/24 09:27:08;;;;;;;23.75;7.75;;;;;;;2.21;100.00;98667.38;5096551;28;20138;-59
2024/01/24 09:29:34;;;;;;;16.65;7.25;;;;;;;2.03;100.00;98673.94;5096750;28;20055;-58
2024/01/24 09:32:01;;;;;;;21.85;8.75;;;;;;;2.10;100.00;98693.19;5096762;28;20059;-59
2024/01/24 09:34:27;;;;;;;26.00;8.98;;;;;;;2.44;100.00;98697.72;5096703;28;20447;-59
2024/01/24 09:36:54;;;;;;;23.15;8.13;;;;;;;2.11;100.00;98663.09;5096482;28;20048;-58
2024/01/24 09:39:21;;;;;;;23.50;9.20;;;;;;;1.97;100.00;98677.94;5096890;28;20160;-61
2024/01/24 09:41:50;;;;;;;36.35;9.10;;;;;;;2.10;100.00;98688.56;5096513;28;20150;-61
2024/01/24 09:44:17;;;;;;;23.70;8.35;;;;;;;2.23;100.00;98667.88;5096683;28;20360;-63
2024/01/24 09:46:44;;;;;;;37.33;10.73;;;;;;;2.42;100.00;98632.31;5096276;28;20314;-62
2024/01/24 09:49:11;;;;;;;30.90;10.25;;;;;;;2.24;100.00;98595.63;5096830;28;20313;-63
2024/01/24 09:51:40;;;;;;;33.97;10.05;;;;;;;2.18;100.00;98575.28;5096544;28;20162;-62
2024/01/24 09:54:07;;;;;;;28.27;10.45;;;;;;;2.19;100.00;98602.00;5096593;28;20149;-61
2024/01/24 09:56:35;;;;;;;17.13;7.38;;;;;;;2.10;100.00;98629.09;5096744;28;20409;-59
2024/01/24 09:59:02;;;;;;;34.22;10.43;;;;;;;2.20;100.00;98633.34;5096142;28;20416;-62
2024/01/24 10:01:31;;;;;;;41.72;9.00;;;;;;;2.05;100.00;98620.34;5096573;28;20063;-59
2024/01/24 10:03:59;;;;;;;32.97;9.55;;;;;;;2.12;100.00;98626.03;5096325;28;20062;-61
2024/01/24 10:06:26;;;;;;;21.05;8.73;;;;;;;2.10;100.00;98601.25;5096704;28;20078;-61
2024/01/24 10:08:52;;;;;;;23.20;9.35;;;;;;;2.55;100.00;98590.72;5096157;28;20048;-60
2024/01/24 10:11:19;;;;;;;28.10;11.43;;;;;;;2.37;100.00;98540.53;5096483;28;20151;-61
2024/01/24 10:13:45;;;;;;;28.10;9.35;;;;;;;2.09;100.00;98538.25;5096068;28;20358;-58
2024/01/24 10:16:11;;;;;;;33.45;9.65;;;;;;;2.36;100.00;98574.09;5096520;28;20058;-55
2024/01/24 10:18:37;;;;;;;26.45;8.65;;;;;;;2.24;100.00;98569.38;5096185;28;20109;-55
2024/01/24 10:21:05;;;;;;;33.47;9.65;;;;;;;2.37;100.00;98573.00;5095971;28;20063;-57
2024/01/24 10:23:33;;;;;;;28.08;8.50;;;;;;;2.07;100.00;98567.53;5096048;28;20098;-57
2024/01/24 10:25:59;;;;;;;24.13;9.27;;;;;;;2.31;100.00;98598.63;5096234;28;20070;-61
2024/01/24 10:28:26;;;;;;;20.88;9.25;;;;;;;2.24;100.00;98580.19;5096215;28;20364;-60
2024/01/24 10:30:52;;;;;;;30.00;9.52;;;;;;;2.30;100.00;98535.63;5095782;28;20052;-59
2024/01/24 10:33:19;;;;;;;38.08;10.98;;;;;;;2.38;100.00;98534.00;5096143;28;20155;-57
2024/01/24 10:35:45;;;;;;;37.75;8.43;;;;;;;2.22;100.00;98509.41;5095571;28;20059;-57
2024/01/24 10:38:12;;;;;;;19.77;7.68;;;;;;;2.29;100.00;98539.44;5095918;28;20431;-58
2024/01/24 10:40:40;;;;;;;20.63;6.63;;;;;;;1.94;100.00;98513.69;5096547;28;20063;-59
2024/01/24 10:43:11;;;;;;;20.98;8.55;;;;;;;2.27;100.00;98536.28;5099698;28;20381;-57
2024/01/24 10:45:40;;;;;;;27.95;7.60;;;;;;;2.35;100.00;98527.31;5099126;28;20420;-55
2024/01/24 10:48:08;;;;;;;25.77;8.65;;;;;;;2.36;100.00;98525.41;5099560;28;20051;-54
2024/01/24 10:50:36;;;;;;;21.27;7.55;;;;;;;2.36;100.00;98533.53;5099448;28;20309;-57
2024/01/24 10:53:03;;;;;;;27.27;8.95;;;;;;;2.36;100.00;98520.00;5099313;28;20139;-56
2024/01/24 10:55:30;;;;;;;16.73;8.13;;;;;;;2.15;100.00;98489.41;5099376;28;20051;-55
2024/01/24 10:57:57;;;;;;;22.63;7.72;;;;;;;2.22;100.00;98532.97;5099247;28;20582;-56
2024/01/24 11:00:25;;;;;;;34.78;8.43;;;;;;;2.02;100.00;98518.25;5099409;28;20131;-57
2024/01/24 11:02:52;;;;;;;35.92;9.57;;;;;;;1.94;100.00;98502.84;5099010;28;20135;-55
2024/01/24 11:05:24;;;;;;;24.48;7.95;;;;;;;2.43;100.00;98497.84;5099413;28;20051;-57
2024/01/24 11:07:56;;;;;;;26.77;7.95;;;;;;;2.30;100.00;98473.44;5098874;28;20139;-56
2024/01/24 11:10:27;;;;;;;24.58;7.53;;;;;;;2.28;100.00;98464.84;5099297;28;20139;-59
2024/01/24 11:12:53;;;;;;;25.20;6.93;;;;;;;2.44;100.00;98408.25;5099072;28;20143;-59
2024/01/24 11:15:22;;;;;;;19.83;6.75;;;;;;;2.34;100.00;98398.63;5099097;28;20047;-55
2024/01/24 11:18:21;;;;;;;22.83;7.80;;;;;;;2.09;100.00;98397.66;5099107;28;20079;-58